createdAt,value
2019-02-20T00:03:31.111Z,7.07
2019-02-20T00:08:38.231Z,7.03
2019-02-20T00:13:45.388Z,7.13
2019-02-20T00:18:52.529Z,7.03
2019-02-20T00:23:59.676Z,7.29
2019-02-20T00:29:06.835Z,7.09
2019-02-20T00:34:14.005Z,8.29
2019-02-20T00:39:21.161Z,8.84
2019-02-20T00:44:28.303Z,9.07
2019-02-20T00:49:35.414Z,8.72
2019-02-20T00:54:42.568Z,8.92
2019-02-20T00:59:49.685Z,8.61
2019-02-20T01:04:56.830Z,9.18
2019-02-20T01:10:03.983Z,8.91
2019-02-20T01:15:11.099Z,9.18
2019-02-20T01:20:18.258Z,8.70
2019-02-20T01:25:25.391Z,8.98
2019-02-20T01:30:32.680Z,8.88
2019-02-20T01:35:39.827Z,8.60
2019-02-20T01:40:46.987Z,8.78
2019-02-20T01:45:54.143Z,8.53
2019-02-20T01:51:01.327Z,9.11
2019-02-20T01:56:08.458Z,8.24
2019-02-20T02:01:15.759Z,8.35
2019-02-20T02:06:22.882Z,8.46
2019-02-20T02:11:29.982Z,8.93
2019-02-20T02:16:37.138Z,8.78
2019-02-20T02:21:44.271Z,8.60
2019-02-20T02:26:51.440Z,8.62
2019-02-20T02:31:58.560Z,8.83
2019-02-20T02:37:05.709Z,8.10
2019-02-20T02:42:12.871Z,8.75
2019-02-20T02:47:20.044Z,8.18
2019-02-20T02:52:27.348Z,7.88
2019-02-20T02:57:34.630Z,7.51
2019-02-20T03:02:41.783Z,7.65
2019-02-20T03:07:48.952Z,7.65
2019-02-20T03:12:56.054Z,8.10
2019-02-20T03:18:03.199Z,7.40
2019-02-20T03:23:10.333Z,7.56
2019-02-20T03:28:17.510Z,7.36
2019-02-20T03:33:24.626Z,7.49
2019-02-20T03:38:31.767Z,7.16
2019-02-20T03:43:38.930Z,7.43
2019-02-20T03:48:46.084Z,7.99
2019-02-20T03:53:53.383Z,7.60
2019-02-20T03:59:00.512Z,8.43
2019-02-20T04:04:07.660Z,7.42
2019-02-20T04:09:14.920Z,7.32
2019-02-20T04:14:22.037Z,7.50
2019-02-20T04:19:29.166Z,7.60
2019-02-20T04:24:36.258Z,8.27
2019-02-20T04:29:43.421Z,8.10
2019-02-20T04:34:50.544Z,7.37
2019-02-20T04:39:57.639Z,7.22
2019-02-20T04:45:04.783Z,7.20
2019-02-20T04:50:12.124Z,7.43
2019-02-20T04:55:19.261Z,7.30
2019-02-20T05:00:26.371Z,7.28
2019-02-20T05:05:33.453Z,7.34
2019-02-20T05:10:40.583Z,7.16
2019-02-20T05:15:47.626Z,7.07
2019-02-20T05:20:54.666Z,7.69
2019-02-20T05:26:01.721Z,7.62
2019-02-20T05:31:08.822Z,7.58
2019-02-20T05:36:15.896Z,7.14
2019-02-20T05:41:22.935Z,7.05
2019-02-20T05:46:30.304Z,7.27
2019-02-20T05:51:37.369Z,6.97
2019-02-20T05:56:44.413Z,7.94
2019-02-20T06:01:51.503Z,7.76
2019-02-20T06:06:58.544Z,7.85
2019-02-20T06:12:05.577Z,8.36
2019-02-20T06:17:12.627Z,7.91
2019-02-20T06:22:19.721Z,7.87
2019-02-20T06:27:26.786Z,7.96
2019-02-20T06:32:33.893Z,8.49
2019-02-20T06:37:40.964Z,8.09
2019-02-20T06:42:48.049Z,8.32
2019-02-20T06:47:55.121Z,8.08
2019-02-20T06:53:02.201Z,8.29
2019-02-20T06:58:09.300Z,8.08
2019-02-20T07:03:16.350Z,8.15
2019-02-20T07:08:23.452Z,7.99
2019-02-20T07:13:30.518Z,8.01
2019-02-20T07:18:37.556Z,7.81
2019-02-20T07:23:44.588Z,7.65
2019-02-20T07:28:51.636Z,7.44
2019-02-20T07:33:58.721Z,7.74
2019-02-20T07:39:05.953Z,8.18
2019-02-20T07:44:13.001Z,9.32
2019-02-20T07:49:20.056Z,20.59
2019-02-20T07:54:27.141Z,14.24
2019-02-20T07:59:34.216Z,13.87
2019-02-20T08:04:41.262Z,11.13
2019-02-20T08:09:48.320Z,9.77
2019-02-20T08:14:55.383Z,9.68
2019-02-20T08:20:02.530Z,9.82
2019-02-20T08:25:09.567Z,10.24
2019-02-20T08:30:16.644Z,10.83
2019-02-20T08:35:23.712Z,10.98
2019-02-20T08:40:30.949Z,11.82
2019-02-20T08:45:37.978Z,9.01
2019-02-20T08:50:45.040Z,8.71
2019-02-20T08:55:52.149Z,9.11
2019-02-20T09:00:59.197Z,9.65
2019-02-20T09:06:06.230Z,10.82
2019-02-20T09:11:13.326Z,11.03
2019-02-20T09:16:20.384Z,11.28
2019-02-20T09:21:32.384Z,11.72
2019-02-20T09:26:29.403Z,12.43
2019-02-20T09:31:36.429Z,13.39
2019-02-20T09:36:43.477Z,14.01
2019-02-20T09:41:50.552Z,14.74
2019-02-20T09:46:57.605Z,15.30
2019-02-20T09:52:04.678Z,16.37
2019-02-20T09:57:11.730Z,15.79
2019-02-20T10:02:18.761Z,15.70
2019-02-20T10:07:25.823Z,16.62
2019-02-20T10:12:32.977Z,16.09
2019-02-20T10:17:40.030Z,16.16
2019-02-20T10:22:47.079Z,17.44
2019-02-20T10:27:54.129Z,18.47
2019-02-20T10:33:01.212Z,18.29
2019-02-20T10:38:08.462Z,19.21
2019-02-20T10:43:15.537Z,20.32
2019-02-20T10:48:22.831Z,20.46
2019-02-20T10:53:30.151Z,20.27
2019-02-20T10:58:37.260Z,20.89
2019-02-20T11:03:44.329Z,20.66
2019-02-20T11:08:51.489Z,18.72
2019-02-20T11:13:58.525Z,18.94
2019-02-20T11:19:05.570Z,16.08
2019-02-20T11:24:12.611Z,15.83
2019-02-20T11:29:19.892Z,15.79
2019-02-20T11:34:26.973Z,14.40
2019-02-20T11:39:37.727Z,12.64
2019-02-20T11:44:40.660Z,13.82
2019-02-20T11:49:47.746Z,15.07
2019-02-20T11:54:54.822Z,13.27
2019-02-20T12:00:01.901Z,14.31
2019-02-20T12:05:08.994Z,13.41
2019-02-20T12:10:16.158Z,13.50
2019-02-20T12:15:23.178Z,13.40
2019-02-20T12:20:30.431Z,12.69
2019-02-20T12:25:37.722Z,12.75
2019-02-20T12:30:44.902Z,12.60
2019-02-20T12:35:52.238Z,12.37
2019-02-20T12:40:59.449Z,12.50
2019-02-20T12:46:06.816Z,12.32
2019-02-20T12:51:14.215Z,11.33
2019-02-20T12:56:21.400Z,11.91
2019-02-20T13:01:28.583Z,11.16
2019-02-20T13:06:35.973Z,11.64
2019-02-20T13:11:43.083Z,10.65
2019-02-20T13:16:50.522Z,9.24
2019-02-20T13:21:57.614Z,8.72
2019-02-20T13:27:08.655Z,7.59
2019-02-20T13:32:11.275Z,7.03
2019-02-20T13:37:18.345Z,7.41
2019-02-20T13:42:25.401Z,5.94
2019-02-20T13:47:32.475Z,6.18
2019-02-20T13:52:39.536Z,6.04
2019-02-20T13:57:46.578Z,6.49
2019-02-20T14:02:53.662Z,6.34
2019-02-20T14:08:00.859Z,6.88
2019-02-20T14:13:07.945Z,7.65
2019-02-20T14:18:15.003Z,6.75
2019-02-20T14:23:22.076Z,6.55
2019-02-20T14:28:29.873Z,6.48
2019-02-20T14:33:36.937Z,5.72
2019-02-20T14:38:45.160Z,6.04
2019-02-20T14:43:52.497Z,6.05
2019-02-20T14:49:00.273Z,5.98
2019-02-20T14:54:08.019Z,5.63
2019-02-20T14:59:15.498Z,5.53
2019-02-20T15:04:23.282Z,5.52
2019-02-20T15:09:31.348Z,5.23
2019-02-20T15:14:39.526Z,5.18
2019-02-20T15:19:47.286Z,5.12
2019-02-20T15:24:55.611Z,4.67
2019-02-20T15:30:04.347Z,4.49
2019-02-20T15:35:10.265Z,4.79
2019-02-20T15:40:18.010Z,4.49
2019-02-20T15:45:25.659Z,4.31
2019-02-20T15:50:33.551Z,4.73
2019-02-20T15:55:41.834Z,5.12
2019-02-20T16:00:49.894Z,5.04
2019-02-20T16:05:57.626Z,5.04
2019-02-20T16:11:05.458Z,4.94
2019-02-20T16:16:14.247Z,4.96
2019-02-20T16:21:19.955Z,5.09
2019-02-20T16:26:27.751Z,5.80
2019-02-20T16:31:35.525Z,6.52
2019-02-20T16:36:42.358Z,6.23
2019-02-20T16:41:49.973Z,6.37
2019-02-20T16:46:57.262Z,5.89
2019-02-20T16:52:04.315Z,6.10
2019-02-20T16:57:11.365Z,5.57
2019-02-20T17:02:18.421Z,5.63
2019-02-20T17:07:25.491Z,5.77
2019-02-20T17:12:32.558Z,5.66
2019-02-20T17:17:39.647Z,5.57
2019-02-20T17:22:46.701Z,6.22
2019-02-20T17:27:53.762Z,6.61
2019-02-20T17:33:00.845Z,6.81
2019-02-20T17:38:07.911Z,6.42
2019-02-20T17:43:15.243Z,7.72
2019-02-20T17:48:22.312Z,8.89
2019-02-20T17:53:29.364Z,9.09
2019-02-20T17:58:36.453Z,9.26
2019-02-20T18:03:43.531Z,13.51
2019-02-20T18:08:50.630Z,23.95
2019-02-20T18:13:57.764Z,8.34
2019-02-20T18:19:04.854Z,13.66
2019-02-20T18:24:11.948Z,27.14
2019-02-20T18:29:18.990Z,22.54
2019-02-20T18:34:26.133Z,20.12
2019-02-20T18:39:33.611Z,21.79
2019-02-20T18:44:43.079Z,27.61
2019-02-20T18:49:50.297Z,38.14
2019-02-20T18:55:05.498Z,24.14
2019-02-20T19:00:04.160Z,19.29
2019-02-20T19:05:11.260Z,16.79
2019-02-20T19:10:19.645Z,14.93
2019-02-20T19:15:27.185Z,23.05
2019-02-20T19:20:35.535Z,18.84
2019-02-20T19:25:43.418Z,18.66
2019-02-20T19:30:51.074Z,16.78
2019-02-20T19:35:59.035Z,14.35
2019-02-20T19:41:06.621Z,10.50
2019-02-20T19:46:16.309Z,9.29
2019-02-20T19:51:22.007Z,8.81
2019-02-20T19:56:33.303Z,9.13
2019-02-20T20:01:31.617Z,9.18
2019-02-20T20:06:39.684Z,8.73
2019-02-20T20:11:46.440Z,9.18
2019-02-20T20:16:54.942Z,8.77
2019-02-20T20:22:03.369Z,8.80
2019-02-20T20:27:12.917Z,8.28
2019-02-20T20:32:22.926Z,7.55
2019-02-20T20:37:30.736Z,7.63
2019-02-20T20:42:39.262Z,7.74
2019-02-20T20:47:46.536Z,8.10
2019-02-20T20:52:55.446Z,8.04
2019-02-20T20:58:03.381Z,8.80
2019-02-20T21:03:11.109Z,8.67
2019-02-20T21:08:18.963Z,9.49
2019-02-20T21:13:26.690Z,9.45
2019-02-20T21:18:34.586Z,10.03
2019-02-20T21:23:41.777Z,12.04
2019-02-20T21:28:49.047Z,11.91
2019-02-20T21:33:56.438Z,13.79
2019-02-20T21:39:03.702Z,12.64
2019-02-20T21:44:11.609Z,11.70
2019-02-20T21:49:19.403Z,10.48
2019-02-20T21:54:27.084Z,10.76
2019-02-20T21:59:39.215Z,10.45
2019-02-20T22:04:41.453Z,10.47
2019-02-20T22:09:57.723Z,10.68
2019-02-20T22:14:55.479Z,10.45
2019-02-20T22:20:03.049Z,9.81
2019-02-20T22:25:10.187Z,9.65
2019-02-20T22:30:17.776Z,10.07
2019-02-20T22:35:30.797Z,9.74
2019-02-20T22:40:29.723Z,9.95
2019-02-20T22:45:37.727Z,10.33
2019-02-20T22:50:45.819Z,10.49
2019-02-20T22:55:52.860Z,11.54
2019-02-20T23:01:00.070Z,16.48
2019-02-20T23:06:07.244Z,20.20
2019-02-20T23:11:14.699Z,15.39
2019-02-20T23:16:22.411Z,12.64
2019-02-20T23:21:29.495Z,10.57
2019-02-20T23:26:37.266Z,10.06
2019-02-20T23:31:44.292Z,10.43
2019-02-20T23:36:51.546Z,10.34
2019-02-20T23:41:59.241Z,9.46
2019-02-20T23:47:07.068Z,9.75
2019-02-20T23:52:14.119Z,9.38
2019-02-20T23:57:21.469Z,9.76
